To NAV CANADA Home Page Login to a new session Search on AWWS site Feedback and Comments Disclaimer Vers la page française équivalente Tips FAQ What's new on the site To the Forecasts and Observations / NOTAM section To "File a Flight Plan" website Publications and other links Update of the User's profile FIC Telephone Numbers My Weather Data Folder Route Weather Data Regional Weather Data Local Weather Data To the Forecasts and Observations / NOTAM section
Request Generated 04/24/2014 at 17:47:04 UTC . Weather information available at that time is displayed.

METAR/TAF

CALGARY/SPRINGBANK/AB    

METAR CYBW 241700Z AUTO 29010KT 260V010 9SM CLR 08/M11 A2966 RMK
SLP078 DENSITY ALT 4300FT=
METAR CYBW 241600Z AUTO 30004KT 240V040 9SM CLR 07/M09 A2966 RMK
SLP078 DENSITY ALT 4100FT=
METAR CYBW 241500Z AUTO 19004KT 120V210 9SM CLR 03/M07 A2968 RMK
SLP086=

TAF CYBW 241738Z 2418/2504 29010KT P6SM SKC
BECMG 2418/2420 07005KT
FM242200 12008KT P6SM SCT070 BKN200
RMK FCST BASED ON AUTO OBS. NXT FCST BY 250000Z=
Your time UTC time
Weather data provided by Environment Canada and NAV CANADA